createdAt,value
2019-04-30T00:01:40.419Z,7.00
2019-04-30T00:04:25.276Z,7.00
2019-04-30T00:07:02.918Z,6.90
2019-04-30T00:09:41.522Z,6.90
2019-04-30T00:12:18.921Z,6.80
2019-04-30T00:14:56.629Z,6.70
2019-04-30T00:17:35.852Z,6.70
2019-04-30T00:20:15.136Z,6.60
2019-04-30T00:22:52.079Z,6.60
2019-04-30T00:25:29.756Z,6.60
2019-04-30T00:28:08.761Z,6.60
2019-04-30T00:30:47.836Z,6.70
2019-04-30T00:33:27.729Z,6.70
2019-04-30T00:36:05.374Z,6.70
2019-04-30T00:38:42.721Z,6.70
2019-04-30T00:41:20.187Z,6.70
2019-04-30T00:43:57.836Z,6.60
2019-04-30T00:46:36.381Z,6.50
2019-04-30T00:49:18.277Z,6.40
2019-04-30T00:51:54.701Z,6.40
2019-04-30T00:54:35.085Z,6.30
2019-04-30T00:57:14.784Z,6.40
2019-04-30T00:59:52.034Z,6.50
2019-04-30T01:02:35.879Z,6.50
2019-04-30T01:05:16.018Z,6.50
2019-04-30T01:07:55.027Z,6.30
2019-04-30T01:10:32.706Z,6.20
2019-04-30T01:13:11.988Z,6.10
2019-04-30T01:15:52.246Z,6.10
2019-04-30T01:18:31.817Z,6.00
2019-04-30T01:21:09.803Z,6.10
2019-04-30T01:23:51.870Z,6.10
2019-04-30T01:26:27.666Z,6.00
2019-04-30T01:29:04.811Z,6.00
2019-04-30T01:31:42.174Z,6.00
2019-04-30T01:34:19.743Z,6.10
2019-04-30T01:36:58.905Z,6.10
2019-04-30T01:39:36.291Z,6.30
2019-04-30T01:42:13.555Z,6.30
2019-04-30T01:44:53.838Z,6.30
2019-04-30T01:47:31.348Z,6.30
2019-04-30T01:50:10.115Z,6.30
2019-04-30T01:52:53.398Z,6.30
2019-04-30T01:55:52.763Z,6.30
2019-04-30T01:58:49.697Z,6.30
2019-04-30T02:01:28.647Z,6.40
2019-04-30T02:04:08.505Z,6.40
2019-04-30T02:06:46.524Z,6.40
2019-04-30T02:09:23.822Z,6.40
2019-04-30T02:12:01.176Z,6.40
2019-04-30T02:14:39.468Z,6.30
2019-04-30T02:17:19.155Z,6.30
2019-04-30T02:19:57.374Z,6.20
2019-04-30T02:22:35.590Z,6.20
2019-04-30T02:25:13.103Z,6.10
2019-04-30T02:27:50.417Z,5.90
2019-04-30T02:30:30.923Z,5.90
2019-04-30T02:33:09.439Z,5.90
2019-04-30T02:36:04.017Z,5.90
2019-04-30T02:38:44.759Z,5.90
2019-04-30T02:41:24.372Z,5.90
2019-04-30T02:44:03.692Z,5.90
2019-04-30T02:46:43.677Z,5.80
2019-04-30T02:49:23.019Z,5.80
2019-04-30T02:52:03.220Z,5.70
2019-04-30T02:54:43.025Z,5.70
2019-04-30T02:57:23.545Z,5.70
2019-04-30T03:00:13.595Z,5.60
2019-04-30T03:02:50.966Z,5.60
2019-04-30T03:05:30.971Z,5.50
2019-04-30T03:08:09.650Z,5.50
2019-04-30T03:10:46.301Z,5.50
2019-04-30T03:13:23.563Z,5.60
2019-04-30T03:16:02.162Z,5.60
2019-04-30T03:18:59.607Z,5.70
2019-04-30T03:21:50.653Z,5.70
2019-04-30T03:24:29.572Z,5.80
2019-04-30T03:27:09.517Z,5.80
2019-04-30T03:29:46.084Z,5.80
2019-04-30T03:32:23.360Z,5.80
2019-04-30T03:35:03.152Z,5.80
2019-04-30T03:37:39.805Z,5.90
2019-04-30T03:40:19.753Z,6.00
2019-04-30T03:42:56.120Z,6.10
2019-04-30T03:45:33.922Z,6.10
2019-04-30T03:48:11.210Z,6.20
2019-04-30T03:50:55.668Z,6.30
2019-04-30T03:53:29.792Z,6.40
2019-04-30T03:56:09.466Z,6.40
2019-04-30T03:58:46.978Z,6.50
2019-04-30T04:01:40.273Z,6.60
2019-04-30T04:04:31.894Z,6.60
2019-04-30T04:07:30.063Z,6.70
2019-04-30T04:10:16.643Z,6.80
2019-04-30T04:12:54.346Z,6.90
2019-04-30T04:15:31.579Z,7.00
2019-04-30T04:18:10.590Z,7.10
2019-04-30T04:20:52.017Z,7.20
2019-04-30T04:23:32.325Z,7.40
2019-04-30T04:26:05.848Z,7.50
2019-04-30T04:28:43.611Z,7.60
2019-04-30T04:31:20.983Z,7.80
2019-04-30T04:34:00.152Z,7.90
2019-04-30T04:36:39.986Z,8.00
2019-04-30T04:39:16.485Z,8.20
2019-04-30T04:41:53.877Z,8.40
2019-04-30T04:44:32.465Z,8.50
2019-04-30T04:47:11.915Z,8.70
2019-04-30T04:49:53.283Z,8.90
2019-04-30T04:52:31.125Z,9.10
2019-04-30T04:55:06.782Z,9.30
2019-04-30T04:57:44.077Z,9.60
2019-04-30T05:00:22.019Z,9.90
2019-04-30T05:03:21.235Z,10.10
2019-04-30T05:06:01.907Z,10.20
2019-04-30T05:08:39.535Z,10.40
2019-04-30T05:11:16.934Z,10.70
2019-04-30T05:13:54.736Z,11.10
2019-04-30T05:16:32.436Z,11.30
2019-04-30T05:19:10.449Z,11.60
2019-04-30T05:21:49.550Z,11.80
2019-04-30T05:24:28.566Z,11.80
2019-04-30T05:27:05.733Z,11.90
2019-04-30T05:29:42.897Z,11.90
2019-04-30T05:32:20.065Z,11.60
2019-04-30T05:34:58.703Z,11.60
2019-04-30T05:37:36.301Z,11.70
2019-04-30T05:40:13.588Z,12.00
2019-04-30T05:42:50.913Z,12.30
2019-04-30T05:45:29.031Z,12.50
2019-04-30T05:48:08.732Z,12.50
2019-04-30T05:50:45.415Z,12.60
2019-04-30T05:53:22.827Z,12.90
2019-04-30T05:56:03.250Z,12.80
2019-04-30T05:58:40.610Z,13.20
2019-04-30T06:01:19.658Z,13.80
2019-04-30T06:03:57.339Z,14.60
2019-04-30T06:06:36.482Z,14.60
2019-04-30T06:09:31.073Z,14.60
2019-04-30T06:12:20.982Z,15.10
2019-04-30T06:15:19.375Z,15.80
2019-04-30T06:18:01.042Z,16.60
2019-04-30T06:20:36.200Z,16.00
2019-04-30T06:23:13.465Z,15.90
2019-04-30T06:25:59.420Z,15.90
2019-04-30T06:28:31.424Z,16.20
2019-04-30T06:31:09.184Z,16.60
2019-04-30T06:33:46.607Z,16.70
2019-04-30T06:36:24.220Z,16.60
2019-04-30T06:39:01.497Z,17.00
2019-04-30T06:41:41.103Z,17.60
2019-04-30T06:44:19.476Z,17.90
2019-04-30T06:46:58.838Z,18.70
2019-04-30T06:49:39.106Z,17.60
2019-04-30T06:52:21.422Z,18.40
2019-04-30T06:54:56.594Z,18.70
2019-04-30T06:57:33.912Z,18.70
2019-04-30T07:00:11.332Z,18.80
2019-04-30T07:02:49.420Z,18.30
2019-04-30T07:05:28.594Z,18.70
2019-04-30T07:08:35.790Z,18.20
2019-04-30T07:11:24.245Z,17.80
2019-04-30T07:14:01.529Z,17.50
2019-04-30T07:16:39.717Z,17.60
2019-04-30T07:19:29.946Z,18.30
2019-04-30T07:21:56.185Z,18.70
2019-04-30T07:24:33.430Z,18.20
2019-04-30T07:27:10.951Z,18.40
2019-04-30T07:29:49.554Z,18.90
2019-04-30T07:32:28.822Z,18.30
2019-04-30T07:35:06.693Z,18.10
2019-04-30T07:37:44.045Z,17.70
2019-04-30T07:40:21.616Z,18.80
2019-04-30T07:42:59.202Z,19.70
2019-04-30T07:45:36.473Z,19.10
2019-04-30T07:48:13.753Z,18.80
2019-04-30T07:50:52.102Z,19.50
2019-04-30T07:53:30.958Z,20.80
2019-04-30T07:56:23.934Z,20.00
2019-04-30T07:58:47.194Z,20.20
2019-04-30T08:01:24.430Z,19.80
2019-04-30T08:04:20.580Z,20.00
2019-04-30T08:06:59.719Z,18.70
2019-04-30T08:09:41.847Z,18.20
2019-04-30T08:12:22.265Z,19.50
2019-04-30T08:14:54.803Z,20.20
2019-04-30T08:17:32.031Z,20.80
2019-04-30T08:20:09.238Z,21.20
2019-04-30T08:22:46.913Z,20.70
2019-04-30T08:25:24.172Z,18.90
2019-04-30T08:28:01.481Z,18.80
2019-04-30T08:30:39.148Z,19.20
2019-04-30T08:33:16.601Z,20.20
2019-04-30T08:35:53.824Z,20.30
2019-04-30T08:38:30.980Z,19.20
2019-04-30T08:41:09.365Z,19.50
2019-04-30T08:43:46.630Z,20.00
2019-04-30T08:46:23.868Z,20.70
2019-04-30T08:49:01.243Z,21.80
2019-04-30T08:51:39.602Z,21.90
2019-04-30T08:54:19.460Z,21.70
2019-04-30T08:56:56.275Z,22.50
2019-04-30T08:59:33.414Z,22.10
2019-04-30T09:02:15.951Z,20.90
2019-04-30T09:04:52.553Z,20.30
2019-04-30T09:07:29.829Z,20.60
2019-04-30T09:10:09.177Z,21.80
2019-04-30T09:12:46.547Z,22.70
2019-04-30T09:15:23.893Z,23.40
2019-04-30T09:18:06.364Z,22.90
2019-04-30T09:20:40.949Z,22.00
2019-04-30T09:23:18.803Z,21.50
2019-04-30T09:25:56.112Z,20.60
2019-04-30T09:28:33.583Z,20.70
2019-04-30T09:31:10.904Z,21.20
2019-04-30T09:33:49.245Z,21.70
2019-04-30T09:36:29.216Z,21.50
2019-04-30T09:39:08.926Z,20.60
2019-04-30T09:41:46.828Z,19.80
2019-04-30T09:44:24.055Z,20.70
2019-04-30T09:47:01.642Z,20.30
2019-04-30T09:49:41.459Z,20.30
2019-04-30T09:52:19.916Z,20.60
2019-04-30T09:54:59.260Z,21.30
2019-04-30T09:57:36.543Z,20.70
2019-04-30T10:00:14.538Z,21.20
2019-04-30T10:02:52.703Z,20.80
2019-04-30T10:05:31.519Z,20.30
2019-04-30T10:08:08.920Z,20.50
2019-04-30T10:10:58.808Z,20.40
2019-04-30T10:13:36.208Z,20.60
2019-04-30T10:16:20.553Z,20.20
2019-04-30T10:18:59.218Z,20.60
2019-04-30T10:21:38.896Z,20.70
2019-04-30T10:24:16.389Z,19.50
2019-04-30T10:26:53.716Z,19.00
2019-04-30T10:29:32.460Z,19.70
2019-04-30T10:32:09.948Z,21.20
2019-04-30T10:34:47.149Z,21.60
2019-04-30T10:37:24.567Z,21.50
2019-04-30T10:40:01.858Z,22.30
2019-04-30T10:42:39.657Z,21.50
2019-04-30T10:45:18.620Z,21.90
2019-04-30T10:47:56.121Z,21.30
2019-04-30T10:50:33.697Z,21.20
2019-04-30T10:53:12.492Z,20.20
2019-04-30T10:55:49.753Z,20.20
2019-04-30T10:58:26.857Z,19.90
2019-04-30T11:01:04.131Z,20.40
2019-04-30T11:03:42.912Z,19.90
2019-04-30T11:06:20.309Z,20.70
2019-04-30T11:09:00.683Z,20.30
2019-04-30T11:11:39.923Z,20.20
2019-04-30T11:14:17.370Z,19.70
2019-04-30T11:16:54.712Z,19.10
2019-04-30T11:19:32.755Z,19.30
2019-04-30T11:22:10.237Z,19.80
2019-04-30T11:24:58.894Z,19.60
2019-04-30T11:27:27.298Z,20.10
2019-04-30T11:30:18.525Z,20.30
2019-04-30T11:32:47.394Z,20.70
2019-04-30T11:35:24.628Z,20.00
2019-04-30T11:38:02.140Z,19.50
2019-04-30T11:40:40.105Z,19.80
2019-04-30T11:43:18.199Z,19.20
2019-04-30T11:46:38.458Z,19.70
2019-04-30T11:49:15.800Z,19.20
2019-04-30T11:51:53.816Z,18.20
2019-04-30T11:54:31.002Z,18.30
2019-04-30T11:57:08.895Z,18.70
2019-04-30T11:59:46.570Z,19.20
2019-04-30T12:02:29.317Z,19.10
2019-04-30T12:05:07.308Z,18.80
2019-04-30T12:08:10.765Z,18.70
2019-04-30T12:11:07.087Z,18.10
2019-04-30T12:13:44.494Z,18.40
2019-04-30T12:16:21.773Z,18.30
2019-04-30T12:19:00.642Z,18.50
2019-04-30T12:21:38.357Z,17.70
2019-04-30T12:24:15.692Z,17.80
2019-04-30T12:26:53.232Z,18.00
2019-04-30T12:29:30.346Z,18.40
2019-04-30T12:32:07.797Z,18.30
2019-04-30T12:34:45.171Z,18.20
2019-04-30T12:37:22.850Z,17.90
2019-04-30T12:40:00.130Z,17.60
2019-04-30T12:42:38.457Z,17.30
2019-04-30T12:45:16.370Z,17.20
2019-04-30T12:47:57.208Z,17.20
2019-04-30T12:50:43.317Z,17.30
2019-04-30T12:53:37.661Z,17.20
2019-04-30T12:56:45.767Z,16.60
2019-04-30T12:59:23.064Z,16.30
2019-04-30T13:02:00.504Z,16.30
2019-04-30T13:04:39.398Z,16.10
2019-04-30T13:07:20.191Z,16.40
2019-04-30T13:09:57.181Z,16.50
2019-04-30T13:12:35.252Z,16.90
2019-04-30T13:15:13.096Z,16.60
2019-04-30T13:17:51.185Z,16.60
2019-04-30T13:20:29.309Z,16.20
2019-04-30T13:23:08.659Z,16.30
2019-04-30T13:25:51.328Z,16.30
2019-04-30T13:28:26.658Z,16.10
2019-04-30T13:31:04.003Z,16.40
2019-04-30T13:33:47.897Z,16.30
2019-04-30T13:36:25.751Z,16.30
2019-04-30T13:39:12.781Z,16.10
2019-04-30T13:41:55.733Z,16.20
2019-04-30T13:44:36.142Z,15.90
2019-04-30T13:47:14.614Z,16.20
2019-04-30T13:49:52.572Z,16.20
2019-04-30T13:52:31.024Z,16.30
2019-04-30T13:55:10.830Z,16.50
2019-04-30T13:57:47.864Z,16.60
2019-04-30T14:00:29.684Z,16.60
2019-04-30T14:03:14.373Z,16.70
2019-04-30T14:05:51.748Z,16.90
2019-04-30T14:08:34.163Z,16.50
2019-04-30T14:11:11.356Z,16.20
2019-04-30T14:13:50.056Z,15.90
2019-04-30T14:16:27.355Z,16.30
2019-04-30T14:19:04.685Z,16.20
2019-04-30T14:21:44.266Z,16.20
2019-04-30T14:24:21.587Z,15.70
2019-04-30T14:26:59.126Z,15.70
2019-04-30T14:29:36.800Z,16.10
2019-04-30T14:32:14.349Z,16.20
2019-04-30T14:34:51.513Z,16.40
2019-04-30T14:37:29.389Z,16.40
2019-04-30T14:40:12.343Z,16.20
2019-04-30T14:42:58.638Z,16.20
2019-04-30T14:45:44.023Z,16.40
2019-04-30T14:48:30.278Z,16.80
2019-04-30T14:51:06.674Z,16.60
2019-04-30T14:53:56.138Z,16.40
2019-04-30T14:56:39.407Z,15.70
2019-04-30T14:59:41.019Z,15.70
2019-04-30T15:02:25.642Z,15.30
2019-04-30T15:05:03.083Z,15.10
2019-04-30T15:07:40.492Z,15.10
2019-04-30T15:10:17.898Z,15.10
2019-04-30T15:12:55.617Z,15.30
2019-04-30T15:15:34.566Z,15.50
2019-04-30T15:18:12.063Z,15.60
2019-04-30T15:20:50.049Z,15.40
2019-04-30T15:23:39.056Z,15.10
2019-04-30T15:26:24.517Z,15.00
2019-04-30T15:28:57.989Z,14.80
2019-04-30T15:31:35.678Z,14.80
2019-04-30T15:34:14.335Z,15.00
2019-04-30T15:36:51.665Z,15.10
2019-04-30T15:39:45.360Z,15.00
2019-04-30T15:42:23.168Z,14.90
2019-04-30T15:45:01.620Z,15.00
2019-04-30T15:47:39.233Z,14.90
2019-04-30T15:50:16.584Z,14.80
2019-04-30T15:52:53.765Z,14.60
2019-04-30T15:55:31.121Z,14.40
2019-04-30T15:58:15.593Z,14.20
2019-04-30T16:00:53.065Z,14.10
2019-04-30T16:03:32.080Z,14.00
2019-04-30T16:06:10.451Z,13.80
2019-04-30T16:08:53.941Z,13.70
2019-04-30T16:12:02.230Z,13.50
2019-04-30T16:14:39.704Z,13.60
2019-04-30T16:17:22.112Z,13.60
2019-04-30T16:19:59.374Z,13.60
2019-04-30T16:22:36.694Z,13.60
2019-04-30T16:25:14.473Z,13.60
2019-04-30T16:27:52.932Z,13.60
2019-04-30T16:30:30.206Z,13.70
2019-04-30T16:33:09.483Z,13.70
2019-04-30T16:35:50.802Z,13.60
2019-04-30T16:38:26.263Z,13.50
2019-04-30T16:41:03.586Z,13.50
2019-04-30T16:43:43.960Z,13.30
2019-04-30T16:46:20.657Z,13.20
2019-04-30T16:48:58.731Z,13.10
2019-04-30T16:51:36.194Z,13.00
2019-04-30T16:54:13.898Z,12.90
2019-04-30T16:57:03.082Z,12.70
2019-04-30T16:59:35.609Z,12.70
2019-04-30T17:02:13.601Z,12.60
2019-04-30T17:05:05.986Z,12.50
2019-04-30T17:07:59.225Z,12.40
2019-04-30T17:10:55.589Z,12.30
2019-04-30T17:13:52.303Z,12.20
2019-04-30T17:16:30.245Z,12.10
2019-04-30T17:19:09.074Z,11.90
2019-04-30T17:21:46.779Z,11.90
2019-04-30T17:24:24.396Z,11.80
2019-04-30T17:27:02.560Z,11.70
2019-04-30T17:29:40.652Z,11.60
2019-04-30T17:32:19.914Z,11.60
2019-04-30T17:34:58.848Z,11.60
2019-04-30T17:37:36.351Z,11.70
2019-04-30T17:40:16.059Z,11.70
2019-04-30T17:42:53.832Z,11.70
2019-04-30T17:45:31.648Z,11.70
2019-04-30T17:48:09.556Z,11.70
2019-04-30T17:50:46.990Z,11.70
2019-04-30T17:53:24.662Z,11.60
2019-04-30T17:56:03.013Z,11.60
2019-04-30T17:58:40.385Z,11.60
2019-04-30T18:01:19.413Z,11.50
2019-04-30T18:03:58.709Z,11.40
2019-04-30T18:06:37.706Z,11.30
2019-04-30T18:09:15.181Z,11.20
2019-04-30T18:11:52.837Z,11.10
2019-04-30T18:14:30.504Z,11.10
2019-04-30T18:17:09.286Z,11.00
2019-04-30T18:20:14.897Z,10.90
2019-04-30T18:23:13.940Z,10.80
2019-04-30T18:25:58.767Z,10.70
2019-04-30T18:28:36.075Z,10.70
2019-04-30T18:31:14.626Z,10.70
2019-04-30T18:33:52.015Z,10.70
2019-04-30T18:36:30.309Z,10.70
2019-04-30T18:39:08.973Z,10.70
2019-04-30T18:41:47.754Z,10.70
2019-04-30T18:44:25.267Z,10.60
2019-04-30T18:47:02.568Z,10.60
2019-04-30T18:49:39.971Z,10.60
2019-04-30T18:52:18.797Z,10.60
2019-04-30T18:54:56.880Z,10.60
2019-04-30T18:57:34.311Z,10.60
2019-04-30T19:00:14.459Z,10.60
2019-04-30T19:02:51.975Z,10.60
2019-04-30T19:05:31.158Z,10.60
2019-04-30T19:08:19.480Z,10.50
2019-04-30T19:11:14.596Z,10.50
2019-04-30T19:14:29.392Z,10.50
2019-04-30T19:17:35.174Z,10.50
2019-04-30T19:20:22.071Z,10.50
2019-04-30T19:22:59.437Z,10.40
2019-04-30T19:25:38.554Z,10.40
2019-04-30T19:28:16.392Z,10.30
2019-04-30T19:30:58.161Z,10.30
2019-04-30T19:33:33.973Z,10.30
2019-04-30T19:36:11.445Z,10.20
2019-04-30T19:38:50.704Z,10.10
2019-04-30T19:41:28.755Z,10.00
2019-04-30T19:44:06.112Z,10.00
2019-04-30T19:46:43.612Z,10.00
2019-04-30T19:49:20.926Z,10.00
2019-04-30T19:52:06.132Z,9.90
2019-04-30T19:54:39.292Z,10.00
2019-04-30T19:57:19.129Z,10.00
2019-04-30T19:59:58.662Z,10.00
2019-04-30T20:02:36.112Z,9.90
2019-04-30T20:05:13.297Z,9.90
2019-04-30T20:07:50.592Z,9.90
2019-04-30T20:10:28.770Z,9.70
2019-04-30T20:13:06.305Z,9.60
2019-04-30T20:15:43.629Z,9.60
2019-04-30T20:18:21.493Z,9.60
2019-04-30T20:21:01.213Z,9.60
2019-04-30T20:23:38.983Z,9.60
2019-04-30T20:26:16.168Z,9.50
2019-04-30T20:28:53.422Z,9.50
2019-04-30T20:31:30.701Z,9.50
2019-04-30T20:34:09.209Z,9.40
2019-04-30T20:36:46.504Z,9.40
2019-04-30T20:39:32.532Z,9.40
2019-04-30T20:42:09.736Z,9.20
2019-04-30T20:44:48.943Z,9.20
2019-04-30T20:47:26.574Z,9.00
2019-04-30T20:50:04.673Z,9.00
2019-04-30T20:52:42.532Z,8.80
2019-04-30T20:55:20.377Z,8.80
2019-04-30T20:57:59.461Z,8.70
2019-04-30T21:00:36.910Z,8.60
2019-04-30T21:03:14.794Z,8.60
2019-04-30T21:05:52.084Z,8.50
2019-04-30T21:08:29.377Z,8.50
2019-04-30T21:11:06.654Z,8.50
2019-04-30T21:13:44.638Z,8.40
2019-04-30T21:16:22.230Z,8.30
2019-04-30T21:18:59.973Z,8.20
2019-04-30T21:21:38.712Z,8.20
2019-04-30T21:24:16.805Z,8.10
2019-04-30T21:26:53.989Z,8.00
2019-04-30T21:29:31.253Z,8.00
2019-04-30T21:32:30.511Z,7.90
2019-04-30T21:35:36.465Z,7.90
2019-04-30T21:38:13.759Z,7.90
2019-04-30T21:40:51.061Z,7.70
2019-04-30T21:43:28.458Z,7.60
2019-04-30T21:46:05.777Z,7.60
2019-04-30T21:48:43.108Z,7.50
2019-04-30T21:51:21.011Z,7.50
2019-04-30T21:53:58.364Z,7.50
2019-04-30T21:56:36.169Z,7.50
2019-04-30T21:59:23.731Z,7.40
2019-04-30T22:01:52.424Z,7.40
2019-04-30T22:04:29.725Z,7.40
2019-04-30T22:07:07.095Z,7.30
2019-04-30T22:09:44.996Z,7.20
2019-04-30T22:12:22.990Z,7.10
2019-04-30T22:15:00.632Z,7.00
2019-04-30T22:17:39.212Z,7.00
2019-04-30T22:20:16.817Z,7.00
2019-04-30T22:22:54.138Z,6.90
2019-04-30T22:25:31.747Z,6.90
2019-04-30T22:28:09.271Z,6.90
2019-04-30T22:30:48.365Z,6.80
2019-04-30T22:33:26.156Z,6.80
2019-04-30T22:36:20.166Z,6.90
2019-04-30T22:39:29.928Z,6.80
2019-04-30T22:42:39.903Z,6.80
2019-04-30T22:45:40.486Z,6.70
2019-04-30T22:48:18.726Z,6.60
2019-04-30T22:50:56.045Z,6.50
2019-04-30T22:53:33.289Z,6.50
2019-04-30T22:56:10.700Z,6.40
2019-04-30T22:58:48.386Z,6.30
2019-04-30T23:01:43.082Z,6.20
2019-04-30T23:04:28.145Z,6.20
2019-04-30T23:07:05.608Z,6.20
2019-04-30T23:09:43.854Z,6.20
2019-04-30T23:12:21.444Z,6.10
2019-04-30T23:14:59.094Z,6.10
2019-04-30T23:17:36.396Z,6.00
2019-04-30T23:20:14.080Z,6.00
2019-04-30T23:22:51.729Z,6.00
2019-04-30T23:25:29.378Z,6.00
2019-04-30T23:28:06.705Z,5.90
2019-04-30T23:30:44.328Z,5.80
2019-04-30T23:33:22.061Z,5.80
2019-04-30T23:36:00.638Z,5.80
2019-04-30T23:38:37.986Z,5.80
2019-04-30T23:41:15.100Z,5.80
2019-04-30T23:43:54.974Z,5.80
2019-04-30T23:46:31.490Z,5.90
2019-04-30T23:49:09.228Z,5.80
2019-04-30T23:51:46.936Z,5.80
2019-04-30T23:54:24.233Z,5.90
2019-04-30T23:57:02.469Z,5.90
2019-04-30T23:59:39.794Z,5.90
